sensor_id;sensor_type;location;lat;lon;timestamp;P1;durP1;ratioP1;P2;durP2;ratioP2
83632;SDS011;73595;53.084;6.696;2024-03-08T00:00:52;41.75;;;21.33;;
83632;SDS011;73595;53.084;6.696;2024-03-08T00:03:17;45.75;;;22.60;;
83632;SDS011;73595;53.084;6.696;2024-03-08T00:05:42;42.28;;;21.95;;
83632;SDS011;73595;53.084;6.696;2024-03-08T00:08:08;45.30;;;22.70;;
83632;SDS011;73595;53.084;6.696;2024-03-08T00:10:34;42.13;;;22.25;;
83632;SDS011;73595;53.084;6.696;2024-03-08T00:13:00;41.70;;;22.63;;
83632;SDS011;73595;53.084;6.696;2024-03-08T00:15:26;55.10;;;24.52;;
83632;SDS011;73595;53.084;6.696;2024-03-08T00:17:54;44.83;;;22.88;;
83632;SDS011;73595;53.084;6.696;2024-03-08T00:20:20;43.78;;;22.60;;
83632;SDS011;73595;53.084;6.696;2024-03-08T00:22:45;45.38;;;22.98;;
83632;SDS011;73595;53.084;6.696;2024-03-08T00:25:11;45.72;;;24.67;;
83632;SDS011;73595;53.084;6.696;2024-03-08T00:27:39;45.13;;;23.92;;
83632;SDS011;73595;53.084;6.696;2024-03-08T00:30:06;50.72;;;23.90;;
83632;SDS011;73595;53.084;6.696;2024-03-08T00:32:32;47.13;;;24.70;;
83632;SDS011;73595;53.084;6.696;2024-03-08T00:34:57;49.45;;;24.27;;
83632;SDS011;73595;53.084;6.696;2024-03-08T00:37:23;43.40;;;23.25;;
83632;SDS011;73595;53.084;6.696;2024-03-08T00:39:49;53.45;;;25.10;;
83632;SDS011;73595;53.084;6.696;2024-03-08T00:42:15;46.13;;;23.63;;
83632;SDS011;73595;53.084;6.696;2024-03-08T00:44:41;50.40;;;24.05;;
83632;SDS011;73595;53.084;6.696;2024-03-08T00:47:07;45.05;;;23.48;;
83632;SDS011;73595;53.084;6.696;2024-03-08T00:49:32;43.95;;;23.40;;
83632;SDS011;73595;53.084;6.696;2024-03-08T00:51:57;51.67;;;25.27;;
83632;SDS011;73595;53.084;6.696;2024-03-08T00:54:23;44.85;;;23.83;;
83632;SDS011;73595;53.084;6.696;2024-03-08T00:56:48;49.33;;;25.65;;
83632;SDS011;73595;53.084;6.696;2024-03-08T00:59:13;50.40;;;24.63;;
83632;SDS011;73595;53.084;6.696;2024-03-08T01:01:39;44.58;;;23.65;;
83632;SDS011;73595;53.084;6.696;2024-03-08T01:04:05;47.38;;;25.20;;
83632;SDS011;73595;53.084;6.696;2024-03-08T01:06:31;42.58;;;24.00;;
83632;SDS011;73595;53.084;6.696;2024-03-08T01:08:56;49.58;;;24.80;;
83632;SDS011;73595;53.084;6.696;2024-03-08T01:11:22;43.88;;;23.13;;
83632;SDS011;73595;53.084;6.696;2024-03-08T01:13:47;42.30;;;24.02;;
83632;SDS011;73595;53.084;6.696;2024-03-08T01:16:12;49.60;;;25.33;;
83632;SDS011;73595;53.084;6.696;2024-03-08T01:18:38;47.58;;;23.70;;
83632;SDS011;73595;53.084;6.696;2024-03-08T01:21:03;48.60;;;25.42;;
83632;SDS011;73595;53.084;6.696;2024-03-08T01:23:29;49.50;;;25.40;;
83632;SDS011;73595;53.084;6.696;2024-03-08T01:25:54;44.47;;;24.35;;
83632;SDS011;73595;53.084;6.696;2024-03-08T01:28:25;49.15;;;25.42;;
83632;SDS011;73595;53.084;6.696;2024-03-08T01:30:51;49.47;;;25.33;;
83632;SDS011;73595;53.084;6.696;2024-03-08T01:33:21;47.92;;;25.33;;
83632;SDS011;73595;53.084;6.696;2024-03-08T01:35:47;46.88;;;25.15;;
83632;SDS011;73595;53.084;6.696;2024-03-08T01:38:13;51.05;;;25.65;;
83632;SDS011;73595;53.084;6.696;2024-03-08T01:40:38;56.85;;;26.42;;
83632;SDS011;73595;53.084;6.696;2024-03-08T01:43:21;43.72;;;24.65;;
83632;SDS011;73595;53.084;6.696;2024-03-08T01:45:50;49.03;;;25.30;;
83632;SDS011;73595;53.084;6.696;2024-03-08T01:48:16;50.53;;;25.67;;
83632;SDS011;73595;53.084;6.696;2024-03-08T01:50:43;52.15;;;26.45;;
83632;SDS011;73595;53.084;6.696;2024-03-08T01:53:10;49.33;;;24.83;;
83632;SDS011;73595;53.084;6.696;2024-03-08T01:55:44;51.05;;;24.63;;
83632;SDS011;73595;53.084;6.696;2024-03-08T01:58:11;46.90;;;25.45;;
83632;SDS011;73595;53.084;6.696;2024-03-08T02:00:40;54.95;;;26.15;;
83632;SDS011;73595;53.084;6.696;2024-03-08T02:03:08;50.55;;;25.10;;
83632;SDS011;73595;53.084;6.696;2024-03-08T02:05:34;50.83;;;26.15;;
83632;SDS011;73595;53.084;6.696;2024-03-08T02:08:00;47.00;;;23.85;;
83632;SDS011;73595;53.084;6.696;2024-03-08T02:10:26;48.47;;;25.73;;
83632;SDS011;73595;53.084;6.696;2024-03-08T02:12:51;53.22;;;25.75;;
83632;SDS011;73595;53.084;6.696;2024-03-08T02:15:17;54.13;;;26.73;;
83632;SDS011;73595;53.084;6.696;2024-03-08T02:17:42;48.25;;;24.60;;
83632;SDS011;73595;53.084;6.696;2024-03-08T02:20:08;49.67;;;24.83;;
83632;SDS011;73595;53.084;6.696;2024-03-08T02:22:35;51.78;;;25.63;;
83632;SDS011;73595;53.084;6.696;2024-03-08T02:25:02;57.35;;;24.70;;
83632;SDS011;73595;53.084;6.696;2024-03-08T02:27:28;51.50;;;24.80;;
83632;SDS011;73595;53.084;6.696;2024-03-08T02:29:55;49.38;;;25.33;;
83632;SDS011;73595;53.084;6.696;2024-03-08T02:32:21;46.58;;;23.40;;
83632;SDS011;73595;53.084;6.696;2024-03-08T02:34:47;46.05;;;23.42;;
83632;SDS011;73595;53.084;6.696;2024-03-08T02:37:13;52.28;;;26.38;;
83632;SDS011;73595;53.084;6.696;2024-03-08T02:39:38;46.58;;;24.17;;
83632;SDS011;73595;53.084;6.696;2024-03-08T02:42:03;44.08;;;24.10;;
83632;SDS011;73595;53.084;6.696;2024-03-08T02:44:29;53.70;;;25.38;;
83632;SDS011;73595;53.084;6.696;2024-03-08T02:46:54;46.15;;;24.77;;
83632;SDS011;73595;53.084;6.696;2024-03-08T02:49:20;46.53;;;25.05;;
83632;SDS011;73595;53.084;6.696;2024-03-08T02:51:46;49.15;;;24.35;;
83632;SDS011;73595;53.084;6.696;2024-03-08T02:54:11;53.00;;;24.92;;
83632;SDS011;73595;53.084;6.696;2024-03-08T02:56:36;48.35;;;24.00;;
83632;SDS011;73595;53.084;6.696;2024-03-08T02:59:02;49.85;;;23.73;;
83632;SDS011;73595;53.084;6.696;2024-03-08T03:01:28;45.30;;;23.80;;
83632;SDS011;73595;53.084;6.696;2024-03-08T03:03:53;43.67;;;22.25;;
83632;SDS011;73595;53.084;6.696;2024-03-08T03:06:18;42.63;;;23.20;;
83632;SDS011;73595;53.084;6.696;2024-03-08T03:08:46;47.78;;;23.15;;
83632;SDS011;73595;53.084;6.696;2024-03-08T03:11:11;45.90;;;23.50;;
83632;SDS011;73595;53.084;6.696;2024-03-08T03:13:38;44.50;;;23.65;;
83632;SDS011;73595;53.084;6.696;2024-03-08T03:16:04;48.92;;;24.60;;
83632;SDS011;73595;53.084;6.696;2024-03-08T03:18:30;44.83;;;23.73;;
83632;SDS011;73595;53.084;6.696;2024-03-08T03:20:57;49.53;;;25.80;;
83632;SDS011;73595;53.084;6.696;2024-03-08T03:23:23;49.78;;;24.25;;
83632;SDS011;73595;53.084;6.696;2024-03-08T03:25:48;52.35;;;23.55;;
83632;SDS011;73595;53.084;6.696;2024-03-08T03:28:14;47.05;;;23.95;;
83632;SDS011;73595;53.084;6.696;2024-03-08T03:30:42;44.47;;;23.40;;
83632;SDS011;73595;53.084;6.696;2024-03-08T03:33:09;44.13;;;23.13;;
83632;SDS011;73595;53.084;6.696;2024-03-08T03:35:35;48.03;;;23.13;;
83632;SDS011;73595;53.084;6.696;2024-03-08T03:38:09;50.15;;;24.33;;
83632;SDS011;73595;53.084;6.696;2024-03-08T03:40:34;47.03;;;22.75;;
83632;SDS011;73595;53.084;6.696;2024-03-08T03:43:00;44.38;;;22.70;;
83632;SDS011;73595;53.084;6.696;2024-03-08T03:45:26;46.42;;;22.98;;
83632;SDS011;73595;53.084;6.696;2024-03-08T03:47:52;45.83;;;22.10;;
83632;SDS011;73595;53.084;6.696;2024-03-08T03:50:18;50.17;;;23.58;;
83632;SDS011;73595;53.084;6.696;2024-03-08T03:52:44;45.50;;;24.02;;
83632;SDS011;73595;53.084;6.696;2024-03-08T03:55:10;43.28;;;22.70;;
83632;SDS011;73595;53.084;6.696;2024-03-08T03:57:37;45.20;;;23.27;;
83632;SDS011;73595;53.084;6.696;2024-03-08T04:00:03;49.85;;;22.80;;
83632;SDS011;73595;53.084;6.696;2024-03-08T04:02:29;48.33;;;23.83;;
83632;SDS011;73595;53.084;6.696;2024-03-08T04:04:55;46.65;;;22.38;;
83632;SDS011;73595;53.084;6.696;2024-03-08T04:07:20;43.42;;;22.27;;
83632;SDS011;73595;53.084;6.696;2024-03-08T04:09:45;43.20;;;22.15;;
83632;SDS011;73595;53.084;6.696;2024-03-08T04:12:11;46.78;;;22.98;;
83632;SDS011;73595;53.084;6.696;2024-03-08T04:14:36;44.42;;;23.05;;
83632;SDS011;73595;53.084;6.696;2024-03-08T04:17:04;41.53;;;23.27;;
83632;SDS011;73595;53.084;6.696;2024-03-08T04:19:31;49.97;;;22.58;;
83632;SDS011;73595;53.084;6.696;2024-03-08T04:21:56;46.40;;;24.85;;
83632;SDS011;73595;53.084;6.696;2024-03-08T04:24:22;44.40;;;22.52;;
83632;SDS011;73595;53.084;6.696;2024-03-08T04:26:47;45.17;;;22.98;;
83632;SDS011;73595;53.084;6.696;2024-03-08T04:29:12;47.97;;;22.83;;
83632;SDS011;73595;53.084;6.696;2024-03-08T04:31:39;48.53;;;23.40;;
83632;SDS011;73595;53.084;6.696;2024-03-08T04:34:05;46.08;;;23.58;;
83632;SDS011;73595;53.084;6.696;2024-03-08T04:36:30;43.95;;;22.58;;
83632;SDS011;73595;53.084;6.696;2024-03-08T04:38:56;43.47;;;22.55;;
83632;SDS011;73595;53.084;6.696;2024-03-08T04:41:21;44.83;;;23.17;;
83632;SDS011;73595;53.084;6.696;2024-03-08T04:43:48;44.17;;;22.00;;
83632;SDS011;73595;53.084;6.696;2024-03-08T04:46:14;45.53;;;22.15;;
83632;SDS011;73595;53.084;6.696;2024-03-08T04:48:39;51.13;;;23.63;;
83632;SDS011;73595;53.084;6.696;2024-03-08T04:51:06;47.45;;;22.83;;
83632;SDS011;73595;53.084;6.696;2024-03-08T04:53:32;43.78;;;22.92;;
83632;SDS011;73595;53.084;6.696;2024-03-08T04:55:59;42.97;;;22.80;;
83632;SDS011;73595;53.084;6.696;2024-03-08T04:58:25;44.88;;;23.08;;
83632;SDS011;73595;53.084;6.696;2024-03-08T05:00:50;40.53;;;21.92;;
83632;SDS011;73595;53.084;6.696;2024-03-08T05:03:15;42.05;;;22.17;;
83632;SDS011;73595;53.084;6.696;2024-03-08T05:05:41;41.53;;;22.33;;
83632;SDS011;73595;53.084;6.696;2024-03-08T05:08:06;45.60;;;21.73;;
83632;SDS011;73595;53.084;6.696;2024-03-08T05:10:32;40.40;;;21.75;;
83632;SDS011;73595;53.084;6.696;2024-03-08T05:12:57;42.95;;;22.35;;
83632;SDS011;73595;53.084;6.696;2024-03-08T05:15:23;47.72;;;22.67;;
83632;SDS011;73595;53.084;6.696;2024-03-08T05:17:48;43.65;;;22.67;;
83632;SDS011;73595;53.084;6.696;2024-03-08T05:20:13;46.30;;;22.63;;
83632;SDS011;73595;53.084;6.696;2024-03-08T05:22:39;43.67;;;22.65;;
83632;SDS011;73595;53.084;6.696;2024-03-08T05:25:05;40.85;;;22.08;;
83632;SDS011;73595;53.084;6.696;2024-03-08T05:27:33;43.72;;;22.48;;
83632;SDS011;73595;53.084;6.696;2024-03-08T05:29:59;41.58;;;21.05;;
83632;SDS011;73595;53.084;6.696;2024-03-08T05:32:24;44.35;;;22.15;;
83632;SDS011;73595;53.084;6.696;2024-03-08T05:34:50;43.42;;;22.20;;
83632;SDS011;73595;53.084;6.696;2024-03-08T05:37:15;44.35;;;22.65;;
83632;SDS011;73595;53.084;6.696;2024-03-08T05:39:40;39.55;;;22.15;;
83632;SDS011;73595;53.084;6.696;2024-03-08T05:42:06;42.15;;;21.60;;
83632;SDS011;73595;53.084;6.696;2024-03-08T05:44:33;44.80;;;22.08;;
83632;SDS011;73595;53.084;6.696;2024-03-08T05:46:59;40.92;;;21.92;;
83632;SDS011;73595;53.084;6.696;2024-03-08T05:49:24;41.13;;;21.80;;
83632;SDS011;73595;53.084;6.696;2024-03-08T05:51:50;41.70;;;22.55;;
83632;SDS011;73595;53.084;6.696;2024-03-08T05:54:16;42.90;;;21.75;;
83632;SDS011;73595;53.084;6.696;2024-03-08T05:56:42;45.60;;;21.92;;
83632;SDS011;73595;53.084;6.696;2024-03-08T05:59:08;45.45;;;23.10;;
83632;SDS011;73595;53.084;6.696;2024-03-08T06:01:34;44.85;;;21.90;;
83632;SDS011;73595;53.084;6.696;2024-03-08T06:04:01;37.55;;;20.80;;
83632;SDS011;73595;53.084;6.696;2024-03-08T06:06:27;43.63;;;23.00;;
83632;SDS011;73595;53.084;6.696;2024-03-08T06:08:53;40.10;;;21.00;;
83632;SDS011;73595;53.084;6.696;2024-03-08T06:11:21;42.92;;;22.05;;
83632;SDS011;73595;53.084;6.696;2024-03-08T06:13:46;43.88;;;22.80;;
83632;SDS011;73595;53.084;6.696;2024-03-08T06:16:12;47.00;;;23.23;;
83632;SDS011;73595;53.084;6.696;2024-03-08T06:18:38;44.58;;;22.23;;
83632;SDS011;73595;53.084;6.696;2024-03-08T06:21:04;42.05;;;20.88;;
83632;SDS011;73595;53.084;6.696;2024-03-08T06:23:31;44.28;;;22.08;;
83632;SDS011;73595;53.084;6.696;2024-03-08T06:26:00;41.05;;;21.10;;
83632;SDS011;73595;53.084;6.696;2024-03-08T06:28:26;45.13;;;22.75;;
83632;SDS011;73595;53.084;6.696;2024-03-08T06:30:51;41.72;;;21.55;;
83632;SDS011;73595;53.084;6.696;2024-03-08T06:33:17;41.63;;;21.13;;
83632;SDS011;73595;53.084;6.696;2024-03-08T06:35:43;42.50;;;21.38;;
83632;SDS011;73595;53.084;6.696;2024-03-08T06:38:08;43.67;;;21.35;;
83632;SDS011;73595;53.084;6.696;2024-03-08T06:40:34;41.83;;;20.83;;
83632;SDS011;73595;53.084;6.696;2024-03-08T06:42:59;42.63;;;22.90;;
83632;SDS011;73595;53.084;6.696;2024-03-08T06:45:25;41.90;;;21.42;;
83632;SDS011;73595;53.084;6.696;2024-03-08T06:47:50;40.80;;;21.23;;
83632;SDS011;73595;53.084;6.696;2024-03-08T06:50:16;44.10;;;21.70;;
83632;SDS011;73595;53.084;6.696;2024-03-08T06:52:41;44.70;;;22.67;;
83632;SDS011;73595;53.084;6.696;2024-03-08T06:55:12;49.95;;;22.25;;
83632;SDS011;73595;53.084;6.696;2024-03-08T06:57:41;40.92;;;22.00;;
83632;SDS011;73595;53.084;6.696;2024-03-08T07:00:07;42.80;;;20.73;;
83632;SDS011;73595;53.084;6.696;2024-03-08T07:02:43;44.63;;;22.23;;
83632;SDS011;73595;53.084;6.696;2024-03-08T07:05:11;40.40;;;21.25;;
83632;SDS011;73595;53.084;6.696;2024-03-08T07:07:36;43.85;;;20.83;;
83632;SDS011;73595;53.084;6.696;2024-03-08T07:10:02;38.28;;;20.90;;
83632;SDS011;73595;53.084;6.696;2024-03-08T07:12:28;37.63;;;21.15;;
83632;SDS011;73595;53.084;6.696;2024-03-08T07:14:53;44.17;;;21.35;;
83632;SDS011;73595;53.084;6.696;2024-03-08T07:17:19;39.78;;;20.52;;
83632;SDS011;73595;53.084;6.696;2024-03-08T07:19:45;43.15;;;21.10;;
83632;SDS011;73595;53.084;6.696;2024-03-08T07:22:10;39.40;;;20.67;;
83632;SDS011;73595;53.084;6.696;2024-03-08T07:24:36;45.97;;;20.67;;
83632;SDS011;73595;53.084;6.696;2024-03-08T07:27:01;39.85;;;20.88;;
83632;SDS011;73595;53.084;6.696;2024-03-08T07:29:27;44.53;;;21.25;;
83632;SDS011;73595;53.084;6.696;2024-03-08T07:31:53;44.58;;;22.10;;
83632;SDS011;73595;53.084;6.696;2024-03-08T07:34:43;41.85;;;21.92;;
83632;SDS011;73595;53.084;6.696;2024-03-08T07:37:08;42.55;;;22.27;;
83632;SDS011;73595;53.084;6.696;2024-03-08T07:39:37;43.78;;;22.00;;
83632;SDS011;73595;53.084;6.696;2024-03-08T07:42:04;40.45;;;21.38;;
83632;SDS011;73595;53.084;6.696;2024-03-08T07:44:29;39.63;;;21.80;;
83632;SDS011;73595;53.084;6.696;2024-03-08T07:46:56;43.05;;;22.02;;
83632;SDS011;73595;53.084;6.696;2024-03-08T07:49:21;39.80;;;21.55;;
83632;SDS011;73595;53.084;6.696;2024-03-08T07:51:46;44.85;;;21.70;;
83632;SDS011;73595;53.084;6.696;2024-03-08T07:54:12;42.85;;;22.13;;
83632;SDS011;73595;53.084;6.696;2024-03-08T07:56:38;39.72;;;21.33;;
83632;SDS011;73595;53.084;6.696;2024-03-08T07:59:03;43.30;;;22.40;;
83632;SDS011;73595;53.084;6.696;2024-03-08T08:01:29;42.15;;;22.13;;
83632;SDS011;73595;53.084;6.696;2024-03-08T08:03:55;41.53;;;22.48;;
83632;SDS011;73595;53.084;6.696;2024-03-08T08:06:21;44.50;;;22.83;;
83632;SDS011;73595;53.084;6.696;2024-03-08T08:08:47;39.15;;;22.75;;
83632;SDS011;73595;53.084;6.696;2024-03-08T08:11:12;42.65;;;21.70;;
83632;SDS011;73595;53.084;6.696;2024-03-08T08:13:37;39.67;;;22.27;;
83632;SDS011;73595;53.084;6.696;2024-03-08T08:16:04;42.33;;;23.40;;
83632;SDS011;73595;53.084;6.696;2024-03-08T08:18:31;43.30;;;23.40;;
83632;SDS011;73595;53.084;6.696;2024-03-08T08:20:58;41.95;;;22.35;;
83632;SDS011;73595;53.084;6.696;2024-03-08T08:23:25;43.97;;;23.30;;
83632;SDS011;73595;53.084;6.696;2024-03-08T08:25:50;44.47;;;22.85;;
83632;SDS011;73595;53.084;6.696;2024-03-08T08:28:16;38.15;;;21.75;;
83632;SDS011;73595;53.084;6.696;2024-03-08T08:30:45;40.85;;;21.88;;
83632;SDS011;73595;53.084;6.696;2024-03-08T08:33:11;41.22;;;22.85;;
83632;SDS011;73595;53.084;6.696;2024-03-08T08:35:36;43.63;;;21.63;;
83632;SDS011;73595;53.084;6.696;2024-03-08T08:38:03;42.10;;;22.55;;
83632;SDS011;73595;53.084;6.696;2024-03-08T08:40:39;39.97;;;21.63;;
83632;SDS011;73595;53.084;6.696;2024-03-08T08:43:04;36.55;;;21.65;;
83632;SDS011;73595;53.084;6.696;2024-03-08T08:45:33;39.50;;;22.25;;
83632;SDS011;73595;53.084;6.696;2024-03-08T08:47:58;39.67;;;22.10;;
83632;SDS011;73595;53.084;6.696;2024-03-08T08:50:27;40.38;;;23.83;;
83632;SDS011;73595;53.084;6.696;2024-03-08T08:52:54;40.22;;;21.20;;
83632;SDS011;73595;53.084;6.696;2024-03-08T08:55:20;45.92;;;23.80;;
83632;SDS011;73595;53.084;6.696;2024-03-08T08:57:46;39.28;;;20.92;;
83632;SDS011;73595;53.084;6.696;2024-03-08T09:00:12;39.08;;;22.10;;
83632;SDS011;73595;53.084;6.696;2024-03-08T09:02:40;41.92;;;21.13;;
83632;SDS011;73595;53.084;6.696;2024-03-08T09:05:06;40.15;;;21.77;;
83632;SDS011;73595;53.084;6.696;2024-03-08T09:07:35;37.45;;;21.52;;
83632;SDS011;73595;53.084;6.696;2024-03-08T09:10:00;38.38;;;21.60;;
83632;SDS011;73595;53.084;6.696;2024-03-08T09:12:26;36.00;;;21.52;;
83632;SDS011;73595;53.084;6.696;2024-03-08T09:14:51;38.03;;;21.48;;
83632;SDS011;73595;53.084;6.696;2024-03-08T09:17:17;37.92;;;21.48;;
83632;SDS011;73595;53.084;6.696;2024-03-08T09:19:45;39.17;;;22.42;;
83632;SDS011;73595;53.084;6.696;2024-03-08T09:22:13;40.17;;;22.70;;
83632;SDS011;73595;53.084;6.696;2024-03-08T09:24:39;40.05;;;22.67;;
83632;SDS011;73595;53.084;6.696;2024-03-08T09:27:05;40.72;;;22.83;;
83632;SDS011;73595;53.084;6.696;2024-03-08T09:29:30;41.22;;;22.75;;
83632;SDS011;73595;53.084;6.696;2024-03-08T09:31:56;40.10;;;22.15;;
83632;SDS011;73595;53.084;6.696;2024-03-08T09:34:22;43.80;;;22.17;;
83632;SDS011;73595;53.084;6.696;2024-03-08T09:36:48;39.22;;;22.10;;
83632;SDS011;73595;53.084;6.696;2024-03-08T09:39:13;42.17;;;22.52;;
83632;SDS011;73595;53.084;6.696;2024-03-08T09:41:42;40.72;;;23.20;;
83632;SDS011;73595;53.084;6.696;2024-03-08T09:44:08;39.38;;;21.65;;
83632;SDS011;73595;53.084;6.696;2024-03-08T09:46:34;39.20;;;21.88;;
83632;SDS011;73595;53.084;6.696;2024-03-08T09:49:00;39.53;;;22.45;;
83632;SDS011;73595;53.084;6.696;2024-03-08T09:51:27;37.08;;;22.00;;
83632;SDS011;73595;53.084;6.696;2024-03-08T09:53:53;45.75;;;23.13;;
83632;SDS011;73595;53.084;6.696;2024-03-08T09:56:19;40.95;;;22.00;;
83632;SDS011;73595;53.084;6.696;2024-03-08T09:58:46;35.60;;;21.13;;
83632;SDS011;73595;53.084;6.696;2024-03-08T10:01:30;39.33;;;22.05;;
83632;SDS011;73595;53.084;6.696;2024-03-08T10:03:56;39.20;;;22.75;;
83632;SDS011;73595;53.084;6.696;2024-03-08T10:06:23;42.30;;;22.30;;
83632;SDS011;73595;53.084;6.696;2024-03-08T10:08:49;38.10;;;22.70;;
83632;SDS011;73595;53.084;6.696;2024-03-08T10:11:16;39.97;;;22.80;;
83632;SDS011;73595;53.084;6.696;2024-03-08T10:13:42;37.95;;;22.38;;
83632;SDS011;73595;53.084;6.696;2024-03-08T10:16:07;36.92;;;21.77;;
83632;SDS011;73595;53.084;6.696;2024-03-08T10:18:33;41.90;;;23.20;;
83632;SDS011;73595;53.084;6.696;2024-03-08T10:21:05;44.55;;;24.27;;
83632;SDS011;73595;53.084;6.696;2024-03-08T10:23:32;40.88;;;23.05;;
83632;SDS011;73595;53.084;6.696;2024-03-08T10:26:08;39.08;;;22.45;;
83632;SDS011;73595;53.084;6.696;2024-03-08T10:28:41;42.40;;;23.63;;
83632;SDS011;73595;53.084;6.696;2024-03-08T10:31:07;39.70;;;23.48;;
83632;SDS011;73595;53.084;6.696;2024-03-08T10:33:33;37.03;;;22.70;;
83632;SDS011;73595;53.084;6.696;2024-03-08T10:35:59;40.92;;;23.45;;
83632;SDS011;73595;53.084;6.696;2024-03-08T10:38:24;37.83;;;23.48;;
83632;SDS011;73595;53.084;6.696;2024-03-08T10:40:51;41.90;;;23.27;;
83632;SDS011;73595;53.084;6.696;2024-03-08T10:43:22;37.80;;;23.75;;
83632;SDS011;73595;53.084;6.696;2024-03-08T10:45:59;39.50;;;23.00;;
83632;SDS011;73595;53.084;6.696;2024-03-08T10:49:01;38.25;;;23.00;;
83632;SDS011;73595;53.084;6.696;2024-03-08T10:51:31;37.03;;;23.55;;
83632;SDS011;73595;53.084;6.696;2024-03-08T10:53:57;37.63;;;23.00;;
83632;SDS011;73595;53.084;6.696;2024-03-08T10:56:24;38.80;;;23.17;;
83632;SDS011;73595;53.084;6.696;2024-03-08T10:58:52;41.95;;;24.15;;
83632;SDS011;73595;53.084;6.696;2024-03-08T11:01:19;37.80;;;24.10;;
83632;SDS011;73595;53.084;6.696;2024-03-08T11:03:44;40.45;;;23.52;;
83632;SDS011;73595;53.084;6.696;2024-03-08T11:06:15;39.88;;;23.83;;
83632;SDS011;73595;53.084;6.696;2024-03-08T11:08:41;39.78;;;23.67;;
83632;SDS011;73595;53.084;6.696;2024-03-08T11:11:22;39.15;;;23.60;;
83632;SDS011;73595;53.084;6.696;2024-03-08T11:14:01;38.53;;;23.70;;
83632;SDS011;73595;53.084;6.696;2024-03-08T11:18:53;43.35;;;24.23;;
83632;SDS011;73595;53.084;6.696;2024-03-08T11:21:19;36.70;;;23.45;;
83632;SDS011;73595;53.084;6.696;2024-03-08T11:26:25;43.17;;;25.00;;
83632;SDS011;73595;53.084;6.696;2024-03-08T11:28:50;37.35;;;23.58;;
83632;SDS011;73595;53.084;6.696;2024-03-08T11:33:46;40.95;;;23.05;;
83632;SDS011;73595;53.084;6.696;2024-03-08T11:36:13;39.72;;;24.15;;
83632;SDS011;73595;53.084;6.696;2024-03-08T11:38:44;43.07;;;23.07;;
83632;SDS011;73595;53.084;6.696;2024-03-08T11:41:16;37.33;;;22.67;;
83632;SDS011;73595;53.084;6.696;2024-03-08T11:43:46;38.50;;;23.05;;
83632;SDS011;73595;53.084;6.696;2024-03-08T11:46:12;37.92;;;24.05;;
83632;SDS011;73595;53.084;6.696;2024-03-08T11:48:39;40.67;;;23.67;;
83632;SDS011;73595;53.084;6.696;2024-03-08T11:51:07;38.30;;;22.83;;
83632;SDS011;73595;53.084;6.696;2024-03-08T11:53:33;38.08;;;22.55;;
83632;SDS011;73595;53.084;6.696;2024-03-08T11:56:07;36.72;;;23.35;;
83632;SDS011;73595;53.084;6.696;2024-03-08T11:58:34;39.05;;;22.77;;
83632;SDS011;73595;53.084;6.696;2024-03-08T12:01:02;36.45;;;22.27;;
83632;SDS011;73595;53.084;6.696;2024-03-08T12:03:29;37.03;;;23.60;;
83632;SDS011;73595;53.084;6.696;2024-03-08T12:05:58;41.13;;;23.63;;
83632;SDS011;73595;53.084;6.696;2024-03-08T12:08:28;36.45;;;23.95;;
83632;SDS011;73595;53.084;6.696;2024-03-08T12:10:55;34.30;;;22.85;;
83632;SDS011;73595;53.084;6.696;2024-03-08T12:13:28;38.00;;;23.67;;
83632;SDS011;73595;53.084;6.696;2024-03-08T12:15:59;36.08;;;23.90;;
83632;SDS011;73595;53.084;6.696;2024-03-08T12:18:25;36.15;;;23.55;;
83632;SDS011;73595;53.084;6.696;2024-03-08T12:21:03;38.30;;;23.92;;
83632;SDS011;73595;53.084;6.696;2024-03-08T12:24:01;39.90;;;23.40;;
83632;SDS011;73595;53.084;6.696;2024-03-08T12:26:28;36.10;;;22.48;;
83632;SDS011;73595;53.084;6.696;2024-03-08T12:28:53;35.33;;;21.73;;
83632;SDS011;73595;53.084;6.696;2024-03-08T12:31:39;39.17;;;22.77;;
83632;SDS011;73595;53.084;6.696;2024-03-08T12:34:04;35.63;;;22.50;;
83632;SDS011;73595;53.084;6.696;2024-03-08T12:36:29;36.63;;;22.17;;
83632;SDS011;73595;53.084;6.696;2024-03-08T12:38:55;32.35;;;21.55;;
83632;SDS011;73595;53.084;6.696;2024-03-08T12:41:21;34.58;;;22.38;;
83632;SDS011;73595;53.084;6.696;2024-03-08T12:43:47;33.65;;;20.80;;
83632;SDS011;73595;53.084;6.696;2024-03-08T12:46:19;35.55;;;21.33;;
83632;SDS011;73595;53.084;6.696;2024-03-08T12:48:45;34.83;;;20.40;;
83632;SDS011;73595;53.084;6.696;2024-03-08T12:51:14;33.90;;;20.13;;
83632;SDS011;73595;53.084;6.696;2024-03-08T12:53:43;29.90;;;19.10;;
83632;SDS011;73595;53.084;6.696;2024-03-08T12:56:10;33.53;;;20.38;;
83632;SDS011;73595;53.084;6.696;2024-03-08T12:58:36;32.22;;;21.80;;
83632;SDS011;73595;53.084;6.696;2024-03-08T13:01:03;32.92;;;20.38;;
83632;SDS011;73595;53.084;6.696;2024-03-08T13:03:32;33.97;;;20.90;;
83632;SDS011;73595;53.084;6.696;2024-03-08T13:06:04;30.95;;;19.75;;
83632;SDS011;73595;53.084;6.696;2024-03-08T13:08:36;32.73;;;21.40;;
83632;SDS011;73595;53.084;6.696;2024-03-08T13:11:04;28.15;;;19.90;;
83632;SDS011;73595;53.084;6.696;2024-03-08T13:13:30;28.98;;;19.40;;
83632;SDS011;73595;53.084;6.696;2024-03-08T13:15:55;28.70;;;19.13;;
83632;SDS011;73595;53.084;6.696;2024-03-08T13:18:21;30.02;;;19.58;;
83632;SDS011;73595;53.084;6.696;2024-03-08T13:20:47;33.60;;;20.52;;
83632;SDS011;73595;53.084;6.696;2024-03-08T13:23:16;31.10;;;20.08;;
83632;SDS011;73595;53.084;6.696;2024-03-08T13:25:42;32.65;;;20.17;;
83632;SDS011;73595;53.084;6.696;2024-03-08T13:28:08;33.72;;;19.95;;
83632;SDS011;73595;53.084;6.696;2024-03-08T13:30:41;28.20;;;18.15;;
83632;SDS011;73595;53.084;6.696;2024-03-08T13:33:06;28.10;;;18.52;;
83632;SDS011;73595;53.084;6.696;2024-03-08T13:35:32;30.02;;;18.90;;
83632;SDS011;73595;53.084;6.696;2024-03-08T13:37:57;30.42;;;19.10;;
83632;SDS011;73595;53.084;6.696;2024-03-08T13:40:37;28.70;;;18.60;;
83632;SDS011;73595;53.084;6.696;2024-03-08T13:43:02;30.52;;;18.73;;
83632;SDS011;73595;53.084;6.696;2024-03-08T13:45:28;28.10;;;19.30;;
83632;SDS011;73595;53.084;6.696;2024-03-08T13:47:54;30.20;;;18.30;;
83632;SDS011;73595;53.084;6.696;2024-03-08T13:50:19;31.50;;;18.55;;
83632;SDS011;73595;53.084;6.696;2024-03-08T13:52:48;25.20;;;16.65;;
83632;SDS011;73595;53.084;6.696;2024-03-08T13:55:18;30.80;;;17.75;;
83632;SDS011;73595;53.084;6.696;2024-03-08T13:57:44;32.80;;;16.42;;
83632;SDS011;73595;53.084;6.696;2024-03-08T14:00:10;23.73;;;15.98;;
83632;SDS011;73595;53.084;6.696;2024-03-08T14:02:37;24.98;;;16.27;;
83632;SDS011;73595;53.084;6.696;2024-03-08T14:05:04;28.02;;;17.20;;
83632;SDS011;73595;53.084;6.696;2024-03-08T14:07:29;23.98;;;16.42;;
83632;SDS011;73595;53.084;6.696;2024-03-08T14:09:55;25.75;;;17.52;;
83632;SDS011;73595;53.084;6.696;2024-03-08T14:12:20;27.42;;;18.05;;
83632;SDS011;73595;53.084;6.696;2024-03-08T14:14:45;27.52;;;17.08;;
83632;SDS011;73595;53.084;6.696;2024-03-08T14:17:11;25.52;;;17.85;;
83632;SDS011;73595;53.084;6.696;2024-03-08T14:19:41;25.02;;;17.17;;
83632;SDS011;73595;53.084;6.696;2024-03-08T14:22:07;25.75;;;16.77;;
83632;SDS011;73595;53.084;6.696;2024-03-08T14:24:37;26.58;;;17.70;;
83632;SDS011;73595;53.084;6.696;2024-03-08T14:27:02;24.83;;;17.50;;